首页
METAR-TAF:

METAR-TAF

机场 :

都柏林机场

都柏林, 爱尔兰

纬度: 53-26N, 经度: 006-15W, 海拔: 68米

当前天气观测

该预报发布于30分钟前的09:00 UTC
风速7节,风向东南,在之间变化
温度 13°C
湿度 72%
气压 1014 hPa
能见度10公里或以上
少量云层高于1800英尺
多云层高于11000英尺

METAR: EIDW 190900Z 13007KT 090V170 9999 FEW018 BKN110 13/08 Q1014 NOSIG

时间: 10:30 (09:30 UTC)

预报

该预报发布于4小时和30分钟前的05:00 UTC
预报有效从19日的 06点(UTC)到 20日的 06点(UTC)
风速3节,风向多变
能见度10公里或以上
散云层高于5000英尺
成为
从 19日的 07点(UTC)到 19日的 09点(UTC)
风速10节,风向东南
成为
从 19日的 20点(UTC)到 19日的 22点(UTC)
风速5节,风向
成为
从 20日的 01点(UTC)到 20日的 03点(UTC)
风速5节,风向北转东北
成为
从 20日的 03点(UTC)到 20日的 05点(UTC)
风速7节,风向
短暂存在
从 20日的 03点(UTC)到 20日的 06点(UTC)
多云层高于1000英尺
小雨
几率 40% :
短暂存在
从 20日的 03点(UTC)到 20日的 06点(UTC)
能見度: 4000
多云层高于500英尺

TAF: EIDW 190500Z 1906/2006 VRB03KT 9999 SCT050 BECMG 1907/1909 13010KT BECMG 1920/1922 10005KT BECMG 2001/2003 03005KT BECMG 2003/2005 09007KT TEMPO 2003/2006 -RA BKN010 PROB40 TEMPO 2003/2006 4000 BKN005

超过4000个机场的气象观测和天气预报(METAR&TAF报告)。

可查询的气象台以黄色和红色小点在地图上表示。

将鼠标移到小点上方,可查看气象台名称。

然后点击查看天气观测和预报。

如需切换地图:点击带黑十字的绿色按钮放大地图;点击带横线的绿色按钮缩小地图;或者点击绿色箭头查看邻近地区的地图。


METAR-TAF: